sensor_id;sensor_type;location;lat;lon;timestamp;P1;durP1;ratioP1;P2;durP2;ratioP2
29958;SDS011;16815;51.100;6.516;2024-03-29T00:00:56;4.93;;;1.27;;
29958;SDS011;16815;51.100;6.516;2024-03-29T00:03:23;5.87;;;1.40;;
29958;SDS011;16815;51.100;6.516;2024-03-29T00:05:49;6.33;;;1.33;;
29958;SDS011;16815;51.100;6.516;2024-03-29T00:08:15;1.47;;;1.13;;
29958;SDS011;16815;51.100;6.516;2024-03-29T00:10:41;3.40;;;1.50;;
29958;SDS011;16815;51.100;6.516;2024-03-29T00:13:07;2.50;;;1.30;;
29958;SDS011;16815;51.100;6.516;2024-03-29T00:15:33;2.43;;;1.40;;
29958;SDS011;16815;51.100;6.516;2024-03-29T00:18:00;3.23;;;1.60;;
29958;SDS011;16815;51.100;6.516;2024-03-29T00:20:26;2.27;;;1.30;;
29958;SDS011;16815;51.100;6.516;2024-03-29T00:22:54;5.70;;;2.50;;
29958;SDS011;16815;51.100;6.516;2024-03-29T00:25:20;2.40;;;1.77;;
29958;SDS011;16815;51.100;6.516;2024-03-29T00:27:46;3.47;;;1.43;;
29958;SDS011;16815;51.100;6.516;2024-03-29T00:30:13;2.57;;;1.57;;
29958;SDS011;16815;51.100;6.516;2024-03-29T00:32:39;2.03;;;1.20;;
29958;SDS011;16815;51.100;6.516;2024-03-29T00:35:05;2.13;;;1.40;;
29958;SDS011;16815;51.100;6.516;2024-03-29T00:37:31;3.03;;;1.30;;
29958;SDS011;16815;51.100;6.516;2024-03-29T00:39:57;1.90;;;1.20;;
29958;SDS011;16815;51.100;6.516;2024-03-29T00:42:23;2.17;;;1.33;;
29958;SDS011;16815;51.100;6.516;2024-03-29T00:44:50;1.40;;;1.30;;
29958;SDS011;16815;51.100;6.516;2024-03-29T00:47:16;3.07;;;1.60;;
29958;SDS011;16815;51.100;6.516;2024-03-29T00:49:41;4.30;;;1.40;;
29958;SDS011;16815;51.100;6.516;2024-03-29T00:52:08;4.07;;;1.63;;
29958;SDS011;16815;51.100;6.516;2024-03-29T00:54:34;2.27;;;1.23;;
29958;SDS011;16815;51.100;6.516;2024-03-29T00:57:00;2.63;;;1.33;;
29958;SDS011;16815;51.100;6.516;2024-03-29T00:59:26;4.03;;;1.60;;
29958;SDS011;16815;51.100;6.516;2024-03-29T01:01:52;1.97;;;1.50;;
29958;SDS011;16815;51.100;6.516;2024-03-29T01:04:17;1.43;;;1.20;;
29958;SDS011;16815;51.100;6.516;2024-03-29T01:06:43;3.70;;;1.40;;
29958;SDS011;16815;51.100;6.516;2024-03-29T01:09:09;2.83;;;1.40;;
29958;SDS011;16815;51.100;6.516;2024-03-29T01:11:36;3.43;;;1.70;;
29958;SDS011;16815;51.100;6.516;2024-03-29T01:14:02;3.17;;;1.33;;
29958;SDS011;16815;51.100;6.516;2024-03-29T01:16:28;3.77;;;1.40;;
29958;SDS011;16815;51.100;6.516;2024-03-29T01:18:54;1.50;;;1.40;;
29958;SDS011;16815;51.100;6.516;2024-03-29T01:21:20;2.43;;;1.20;;
29958;SDS011;16815;51.100;6.516;2024-03-29T01:23:46;2.63;;;1.40;;
29958;SDS011;16815;51.100;6.516;2024-03-29T01:26:12;3.50;;;1.40;;
29958;SDS011;16815;51.100;6.516;2024-03-29T01:28:39;2.33;;;1.50;;
29958;SDS011;16815;51.100;6.516;2024-03-29T01:31:05;1.93;;;1.20;;
29958;SDS011;16815;51.100;6.516;2024-03-29T01:33:31;2.27;;;1.30;;
29958;SDS011;16815;51.100;6.516;2024-03-29T01:36:01;4.30;;;1.40;;
29958;SDS011;16815;51.100;6.516;2024-03-29T01:38:27;3.43;;;1.40;;
29958;SDS011;16815;51.100;6.516;2024-03-29T01:40:53;2.67;;;1.40;;
29958;SDS011;16815;51.100;6.516;2024-03-29T01:43:19;2.40;;;1.40;;
29958;SDS011;16815;51.100;6.516;2024-03-29T01:45:47;2.87;;;1.67;;
29958;SDS011;16815;51.100;6.516;2024-03-29T01:48:13;3.67;;;1.50;;
29958;SDS011;16815;51.100;6.516;2024-03-29T01:50:40;2.47;;;1.30;;
29958;SDS011;16815;51.100;6.516;2024-03-29T01:53:07;2.63;;;1.47;;
29958;SDS011;16815;51.100;6.516;2024-03-29T01:55:34;1.53;;;1.10;;
29958;SDS011;16815;51.100;6.516;2024-03-29T01:58:00;1.10;;;1.00;;
29958;SDS011;16815;51.100;6.516;2024-03-29T02:00:27;1.73;;;1.20;;
29958;SDS011;16815;51.100;6.516;2024-03-29T02:02:53;2.27;;;1.40;;
29958;SDS011;16815;51.100;6.516;2024-03-29T02:05:19;2.37;;;1.17;;
29958;SDS011;16815;51.100;6.516;2024-03-29T02:07:46;2.10;;;1.30;;
29958;SDS011;16815;51.100;6.516;2024-03-29T02:10:13;1.47;;;1.20;;
29958;SDS011;16815;51.100;6.516;2024-03-29T02:12:39;2.20;;;1.40;;
29958;SDS011;16815;51.100;6.516;2024-03-29T02:15:06;3.77;;;1.40;;
29958;SDS011;16815;51.100;6.516;2024-03-29T02:17:32;2.83;;;1.53;;
29958;SDS011;16815;51.100;6.516;2024-03-29T02:19:58;3.13;;;1.47;;
29958;SDS011;16815;51.100;6.516;2024-03-29T02:22:24;2.00;;;1.37;;
29958;SDS011;16815;51.100;6.516;2024-03-29T02:24:51;3.23;;;1.60;;
29958;SDS011;16815;51.100;6.516;2024-03-29T02:27:17;3.93;;;1.73;;
29958;SDS011;16815;51.100;6.516;2024-03-29T02:29:43;2.20;;;1.30;;
29958;SDS011;16815;51.100;6.516;2024-03-29T02:32:09;5.33;;;1.43;;
29958;SDS011;16815;51.100;6.516;2024-03-29T02:34:35;2.40;;;1.30;;
29958;SDS011;16815;51.100;6.516;2024-03-29T02:37:01;3.90;;;1.40;;
29958;SDS011;16815;51.100;6.516;2024-03-29T02:39:27;2.97;;;1.13;;
29958;SDS011;16815;51.100;6.516;2024-03-29T02:41:53;5.47;;;1.60;;
29958;SDS011;16815;51.100;6.516;2024-03-29T02:44:19;4.60;;;1.40;;
29958;SDS011;16815;51.100;6.516;2024-03-29T02:46:45;2.93;;;1.53;;
29958;SDS011;16815;51.100;6.516;2024-03-29T02:49:11;1.20;;;1.10;;
29958;SDS011;16815;51.100;6.516;2024-03-29T02:51:37;1.53;;;1.30;;
29958;SDS011;16815;51.100;6.516;2024-03-29T02:54:03;5.00;;;1.57;;
29958;SDS011;16815;51.100;6.516;2024-03-29T02:56:29;4.47;;;1.17;;
29958;SDS011;16815;51.100;6.516;2024-03-29T02:58:55;3.27;;;1.13;;
29958;SDS011;16815;51.100;6.516;2024-03-29T03:01:21;4.37;;;1.40;;
29958;SDS011;16815;51.100;6.516;2024-03-29T03:03:47;2.77;;;1.23;;
29958;SDS011;16815;51.100;6.516;2024-03-29T03:06:13;2.97;;;1.37;;
29958;SDS011;16815;51.100;6.516;2024-03-29T03:08:39;3.23;;;1.30;;
29958;SDS011;16815;51.100;6.516;2024-03-29T03:11:24;4.07;;;1.20;;
29958;SDS011;16815;51.100;6.516;2024-03-29T03:13:50;4.23;;;1.57;;
29958;SDS011;16815;51.100;6.516;2024-03-29T03:16:16;4.33;;;1.50;;
29958;SDS011;16815;51.100;6.516;2024-03-29T03:18:41;4.97;;;1.70;;
29958;SDS011;16815;51.100;6.516;2024-03-29T03:21:07;5.10;;;1.20;;
29958;SDS011;16815;51.100;6.516;2024-03-29T03:23:33;2.33;;;1.13;;
29958;SDS011;16815;51.100;6.516;2024-03-29T03:26:00;4.03;;;1.57;;
29958;SDS011;16815;51.100;6.516;2024-03-29T03:28:28;5.57;;;1.33;;
29958;SDS011;16815;51.100;6.516;2024-03-29T03:30:54;3.27;;;1.60;;
29958;SDS011;16815;51.100;6.516;2024-03-29T03:33:20;4.87;;;1.60;;
29958;SDS011;16815;51.100;6.516;2024-03-29T03:35:46;2.93;;;1.50;;
29958;SDS011;16815;51.100;6.516;2024-03-29T03:38:13;6.60;;;1.50;;
29958;SDS011;16815;51.100;6.516;2024-03-29T03:40:39;5.27;;;1.80;;
29958;SDS011;16815;51.100;6.516;2024-03-29T03:43:05;1.70;;;1.27;;
29958;SDS011;16815;51.100;6.516;2024-03-29T03:45:35;6.37;;;1.73;;
29958;SDS011;16815;51.100;6.516;2024-03-29T03:48:04;3.53;;;1.33;;
29958;SDS011;16815;51.100;6.516;2024-03-29T03:50:31;1.93;;;1.40;;
29958;SDS011;16815;51.100;6.516;2024-03-29T03:52:56;1.53;;;1.20;;
29958;SDS011;16815;51.100;6.516;2024-03-29T03:55:23;3.73;;;1.40;;
29958;SDS011;16815;51.100;6.516;2024-03-29T03:57:49;3.57;;;1.20;;
29958;SDS011;16815;51.100;6.516;2024-03-29T04:00:15;2.83;;;1.13;;
29958;SDS011;16815;51.100;6.516;2024-03-29T04:02:41;1.43;;;1.30;;
29958;SDS011;16815;51.100;6.516;2024-03-29T04:05:08;2.17;;;1.10;;
29958;SDS011;16815;51.100;6.516;2024-03-29T04:07:34;3.87;;;1.20;;
29958;SDS011;16815;51.100;6.516;2024-03-29T04:09:59;2.03;;;1.20;;
29958;SDS011;16815;51.100;6.516;2024-03-29T04:12:25;2.47;;;1.10;;
29958;SDS011;16815;51.100;6.516;2024-03-29T04:14:51;1.87;;;1.10;;
29958;SDS011;16815;51.100;6.516;2024-03-29T04:17:17;3.33;;;1.47;;
29958;SDS011;16815;51.100;6.516;2024-03-29T04:19:43;3.77;;;1.47;;
29958;SDS011;16815;51.100;6.516;2024-03-29T04:22:09;2.50;;;1.43;;
29958;SDS011;16815;51.100;6.516;2024-03-29T04:24:35;2.70;;;1.40;;
29958;SDS011;16815;51.100;6.516;2024-03-29T04:27:01;4.00;;;1.30;;
29958;SDS011;16815;51.100;6.516;2024-03-29T04:29:29;1.93;;;1.00;;
29958;SDS011;16815;51.100;6.516;2024-03-29T04:31:55;2.30;;;1.13;;
29958;SDS011;16815;51.100;6.516;2024-03-29T04:34:20;1.07;;;1.00;;
29958;SDS011;16815;51.100;6.516;2024-03-29T04:36:46;1.47;;;1.17;;
29958;SDS011;16815;51.100;6.516;2024-03-29T04:39:12;5.73;;;1.40;;
29958;SDS011;16815;51.100;6.516;2024-03-29T04:41:38;2.13;;;1.20;;
29958;SDS011;16815;51.100;6.516;2024-03-29T04:44:04;2.40;;;1.20;;
29958;SDS011;16815;51.100;6.516;2024-03-29T04:46:33;3.33;;;1.40;;
29958;SDS011;16815;51.100;6.516;2024-03-29T04:48:59;2.37;;;1.40;;
29958;SDS011;16815;51.100;6.516;2024-03-29T04:51:25;2.63;;;1.40;;
29958;SDS011;16815;51.100;6.516;2024-03-29T04:53:51;2.43;;;1.40;;
29958;SDS011;16815;51.100;6.516;2024-03-29T04:56:17;2.37;;;1.43;;
29958;SDS011;16815;51.100;6.516;2024-03-29T04:58:43;3.20;;;1.60;;
29958;SDS011;16815;51.100;6.516;2024-03-29T05:01:11;2.67;;;1.40;;
29958;SDS011;16815;51.100;6.516;2024-03-29T05:03:37;1.70;;;1.40;;
29958;SDS011;16815;51.100;6.516;2024-03-29T05:06:03;3.93;;;1.67;;
29958;SDS011;16815;51.100;6.516;2024-03-29T05:08:29;2.50;;;1.43;;
29958;SDS011;16815;51.100;6.516;2024-03-29T05:10:55;2.83;;;1.57;;
29958;SDS011;16815;51.100;6.516;2024-03-29T05:13:21;2.50;;;1.80;;
29958;SDS011;16815;51.100;6.516;2024-03-29T05:15:47;2.83;;;1.90;;
29958;SDS011;16815;51.100;6.516;2024-03-29T05:18:14;5.37;;;2.70;;
29958;SDS011;16815;51.100;6.516;2024-03-29T05:20:40;3.77;;;2.37;;
29958;SDS011;16815;51.100;6.516;2024-03-29T05:23:11;3.40;;;2.20;;
29958;SDS011;16815;51.100;6.516;2024-03-29T05:25:39;4.20;;;2.03;;
29958;SDS011;16815;51.100;6.516;2024-03-29T05:28:05;5.77;;;2.30;;
29958;SDS011;16815;51.100;6.516;2024-03-29T05:30:32;4.70;;;2.63;;
29958;SDS011;16815;51.100;6.516;2024-03-29T05:32:59;3.23;;;1.77;;
29958;SDS011;16815;51.100;6.516;2024-03-29T05:35:25;3.50;;;2.30;;
29958;SDS011;16815;51.100;6.516;2024-03-29T05:37:51;3.10;;;1.87;;
29958;SDS011;16815;51.100;6.516;2024-03-29T05:40:19;4.00;;;2.10;;
29958;SDS011;16815;51.100;6.516;2024-03-29T05:42:50;4.33;;;2.20;;
29958;SDS011;16815;51.100;6.516;2024-03-29T05:45:23;6.07;;;1.80;;
29958;SDS011;16815;51.100;6.516;2024-03-29T05:47:51;3.63;;;1.70;;
29958;SDS011;16815;51.100;6.516;2024-03-29T05:50:17;3.83;;;2.00;;
29958;SDS011;16815;51.100;6.516;2024-03-29T05:52:42;3.30;;;1.70;;
29958;SDS011;16815;51.100;6.516;2024-03-29T05:55:08;4.00;;;1.63;;
29958;SDS011;16815;51.100;6.516;2024-03-29T05:57:35;3.63;;;1.63;;
29958;SDS011;16815;51.100;6.516;2024-03-29T06:00:06;3.97;;;1.80;;
29958;SDS011;16815;51.100;6.516;2024-03-29T06:02:32;3.17;;;1.47;;
29958;SDS011;16815;51.100;6.516;2024-03-29T06:04:58;3.20;;;1.43;;
29958;SDS011;16815;51.100;6.516;2024-03-29T06:07:24;3.93;;;1.50;;
29958;SDS011;16815;51.100;6.516;2024-03-29T06:09:50;2.70;;;1.70;;
29958;SDS011;16815;51.100;6.516;2024-03-29T06:12:16;4.23;;;1.70;;
29958;SDS011;16815;51.100;6.516;2024-03-29T06:14:42;2.53;;;1.40;;
29958;SDS011;16815;51.100;6.516;2024-03-29T06:17:26;2.43;;;1.57;;
29958;SDS011;16815;51.100;6.516;2024-03-29T06:19:53;2.00;;;1.80;;
29958;SDS011;16815;51.100;6.516;2024-03-29T06:22:25;2.83;;;1.70;;
29958;SDS011;16815;51.100;6.516;2024-03-29T06:24:55;2.47;;;1.50;;
29958;SDS011;16815;51.100;6.516;2024-03-29T06:27:25;4.03;;;1.60;;
29958;SDS011;16815;51.100;6.516;2024-03-29T06:29:51;4.73;;;1.70;;
29958;SDS011;16815;51.100;6.516;2024-03-29T06:32:17;5.10;;;1.50;;
29958;SDS011;16815;51.100;6.516;2024-03-29T06:34:44;4.17;;;2.00;;
29958;SDS011;16815;51.100;6.516;2024-03-29T06:37:10;2.83;;;1.40;;
29958;SDS011;16815;51.100;6.516;2024-03-29T06:39:36;1.90;;;1.50;;
29958;SDS011;16815;51.100;6.516;2024-03-29T06:42:02;2.67;;;1.60;;
29958;SDS011;16815;51.100;6.516;2024-03-29T06:44:28;3.03;;;1.60;;
29958;SDS011;16815;51.100;6.516;2024-03-29T06:46:54;4.47;;;1.53;;
29958;SDS011;16815;51.100;6.516;2024-03-29T06:49:20;2.13;;;1.57;;
29958;SDS011;16815;51.100;6.516;2024-03-29T06:51:46;2.60;;;1.33;;
29958;SDS011;16815;51.100;6.516;2024-03-29T06:54:12;4.50;;;1.70;;
29958;SDS011;16815;51.100;6.516;2024-03-29T06:56:38;3.20;;;1.70;;
29958;SDS011;16815;51.100;6.516;2024-03-29T06:59:04;2.53;;;1.77;;
29958;SDS011;16815;51.100;6.516;2024-03-29T07:01:30;3.93;;;1.70;;
29958;SDS011;16815;51.100;6.516;2024-03-29T07:03:56;5.17;;;1.70;;
29958;SDS011;16815;51.100;6.516;2024-03-29T07:06:22;4.57;;;1.77;;
29958;SDS011;16815;51.100;6.516;2024-03-29T07:08:48;2.93;;;1.43;;
29958;SDS011;16815;51.100;6.516;2024-03-29T07:11:14;1.70;;;1.60;;
29958;SDS011;16815;51.100;6.516;2024-03-29T07:13:40;3.00;;;1.50;;
29958;SDS011;16815;51.100;6.516;2024-03-29T07:16:06;2.57;;;1.70;;
29958;SDS011;16815;51.100;6.516;2024-03-29T07:18:32;7.87;;;1.93;;
29958;SDS011;16815;51.100;6.516;2024-03-29T07:20:58;5.30;;;1.90;;
29958;SDS011;16815;51.100;6.516;2024-03-29T07:23:24;5.60;;;2.50;;
29958;SDS011;16815;51.100;6.516;2024-03-29T07:25:58;2.07;;;1.57;;
29958;SDS011;16815;51.100;6.516;2024-03-29T07:28:24;4.57;;;1.40;;
29958;SDS011;16815;51.100;6.516;2024-03-29T07:30:50;1.70;;;1.50;;
29958;SDS011;16815;51.100;6.516;2024-03-29T07:33:18;3.60;;;1.63;;
29958;SDS011;16815;51.100;6.516;2024-03-29T07:35:46;2.00;;;1.43;;
29958;SDS011;16815;51.100;6.516;2024-03-29T07:38:12;4.90;;;1.60;;
29958;SDS011;16815;51.100;6.516;2024-03-29T07:40:42;3.67;;;1.70;;
29958;SDS011;16815;51.100;6.516;2024-03-29T07:43:08;2.77;;;1.40;;
29958;SDS011;16815;51.100;6.516;2024-03-29T07:45:34;1.60;;;1.40;;
29958;SDS011;16815;51.100;6.516;2024-03-29T07:48:00;2.57;;;1.63;;
29958;SDS011;16815;51.100;6.516;2024-03-29T07:50:26;3.53;;;1.53;;
29958;SDS011;16815;51.100;6.516;2024-03-29T07:52:52;2.87;;;1.50;;
29958;SDS011;16815;51.100;6.516;2024-03-29T07:55:18;2.27;;;1.40;;
29958;SDS011;16815;51.100;6.516;2024-03-29T07:57:44;2.90;;;1.53;;
29958;SDS011;16815;51.100;6.516;2024-03-29T08:00:11;3.80;;;2.03;;
29958;SDS011;16815;51.100;6.516;2024-03-29T08:02:37;4.50;;;2.30;;
29958;SDS011;16815;51.100;6.516;2024-03-29T08:05:05;3.00;;;2.00;;
29958;SDS011;16815;51.100;6.516;2024-03-29T08:07:33;6.60;;;1.80;;
29958;SDS011;16815;51.100;6.516;2024-03-29T08:09:59;3.37;;;1.90;;
29958;SDS011;16815;51.100;6.516;2024-03-29T08:12:25;2.97;;;1.57;;
29958;SDS011;16815;51.100;6.516;2024-03-29T08:14:51;6.13;;;1.83;;
29958;SDS011;16815;51.100;6.516;2024-03-29T08:17:17;2.50;;;1.47;;
29958;SDS011;16815;51.100;6.516;2024-03-29T08:19:43;3.30;;;1.60;;
29958;SDS011;16815;51.100;6.516;2024-03-29T08:22:09;2.60;;;1.70;;
29958;SDS011;16815;51.100;6.516;2024-03-29T08:24:38;2.87;;;1.60;;
29958;SDS011;16815;51.100;6.516;2024-03-29T08:27:04;4.90;;;1.53;;
29958;SDS011;16815;51.100;6.516;2024-03-29T08:29:30;3.40;;;1.30;;
29958;SDS011;16815;51.100;6.516;2024-03-29T08:31:56;5.17;;;1.30;;
29958;SDS011;16815;51.100;6.516;2024-03-29T08:34:22;2.40;;;1.30;;
29958;SDS011;16815;51.100;6.516;2024-03-29T08:36:49;4.43;;;1.37;;
29958;SDS011;16815;51.100;6.516;2024-03-29T08:39:15;3.67;;;1.30;;
29958;SDS011;16815;51.100;6.516;2024-03-29T08:41:41;2.27;;;1.47;;
29958;SDS011;16815;51.100;6.516;2024-03-29T08:44:09;2.83;;;1.33;;
29958;SDS011;16815;51.100;6.516;2024-03-29T08:46:35;1.50;;;1.10;;
29958;SDS011;16815;51.100;6.516;2024-03-29T08:49:01;4.67;;;1.30;;
29958;SDS011;16815;51.100;6.516;2024-03-29T08:51:27;1.73;;;1.17;;
29958;SDS011;16815;51.100;6.516;2024-03-29T08:53:54;1.97;;;1.17;;
29958;SDS011;16815;51.100;6.516;2024-03-29T08:56:22;1.67;;;1.10;;
29958;SDS011;16815;51.100;6.516;2024-03-29T08:58:48;2.83;;;1.20;;
29958;SDS011;16815;51.100;6.516;2024-03-29T09:01:14;1.80;;;1.20;;
29958;SDS011;16815;51.100;6.516;2024-03-29T09:03:40;2.67;;;1.23;;
29958;SDS011;16815;51.100;6.516;2024-03-29T09:06:06;3.53;;;1.20;;
29958;SDS011;16815;51.100;6.516;2024-03-29T09:08:32;7.00;;;1.43;;
29958;SDS011;16815;51.100;6.516;2024-03-29T09:10:58;2.40;;;1.40;;
29958;SDS011;16815;51.100;6.516;2024-03-29T09:13:26;3.13;;;1.30;;
29958;SDS011;16815;51.100;6.516;2024-03-29T09:15:52;3.00;;;1.30;;
29958;SDS011;16815;51.100;6.516;2024-03-29T09:18:18;4.50;;;1.50;;
29958;SDS011;16815;51.100;6.516;2024-03-29T09:20:58;5.57;;;1.63;;
29958;SDS011;16815;51.100;6.516;2024-03-29T09:23:27;2.37;;;1.63;;
29958;SDS011;16815;51.100;6.516;2024-03-29T09:25:54;2.00;;;1.10;;
29958;SDS011;16815;51.100;6.516;2024-03-29T09:28:21;3.00;;;1.10;;
29958;SDS011;16815;51.100;6.516;2024-03-29T09:30:48;2.13;;;1.17;;
29958;SDS011;16815;51.100;6.516;2024-03-29T09:33:14;2.33;;;1.10;;
29958;SDS011;16815;51.100;6.516;2024-03-29T09:35:40;1.07;;;0.80;;
29958;SDS011;16815;51.100;6.516;2024-03-29T09:38:06;2.07;;;1.00;;
29958;SDS011;16815;51.100;6.516;2024-03-29T09:40:32;0.93;;;0.70;;
29958;SDS011;16815;51.100;6.516;2024-03-29T09:43:02;1.33;;;0.83;;
29958;SDS011;16815;51.100;6.516;2024-03-29T09:45:31;2.80;;;0.93;;
29958;SDS011;16815;51.100;6.516;2024-03-29T09:47:57;2.67;;;1.07;;
29958;SDS011;16815;51.100;6.516;2024-03-29T09:50:24;0.80;;;0.80;;
29958;SDS011;16815;51.100;6.516;2024-03-29T09:52:50;2.40;;;1.00;;
29958;SDS011;16815;51.100;6.516;2024-03-29T09:55:18;5.17;;;1.20;;
29958;SDS011;16815;51.100;6.516;2024-03-29T09:57:45;0.70;;;0.70;;
29958;SDS011;16815;51.100;6.516;2024-03-29T10:00:11;1.83;;;0.80;;
29958;SDS011;16815;51.100;6.516;2024-03-29T10:02:37;2.20;;;1.00;;
29958;SDS011;16815;51.100;6.516;2024-03-29T10:05:04;2.10;;;0.77;;
29958;SDS011;16815;51.100;6.516;2024-03-29T10:07:32;1.13;;;0.73;;
29958;SDS011;16815;51.100;6.516;2024-03-29T10:10:01;1.23;;;0.90;;
29958;SDS011;16815;51.100;6.516;2024-03-29T10:12:27;1.80;;;1.00;;
29958;SDS011;16815;51.100;6.516;2024-03-29T10:14:53;0.93;;;0.80;;
29958;SDS011;16815;51.100;6.516;2024-03-29T10:17:28;1.07;;;0.70;;
29958;SDS011;16815;51.100;6.516;2024-03-29T10:19:54;0.80;;;0.70;;
29958;SDS011;16815;51.100;6.516;2024-03-29T10:22:20;1.10;;;0.77;;
29958;SDS011;16815;51.100;6.516;2024-03-29T10:24:46;1.63;;;0.77;;
29958;SDS011;16815;51.100;6.516;2024-03-29T10:27:13;2.53;;;0.90;;
29958;SDS011;16815;51.100;6.516;2024-03-29T10:29:39;0.77;;;0.70;;
29958;SDS011;16815;51.100;6.516;2024-03-29T10:32:06;1.33;;;0.80;;
29958;SDS011;16815;51.100;6.516;2024-03-29T10:34:32;2.20;;;0.90;;
29958;SDS011;16815;51.100;6.516;2024-03-29T10:37:02;5.97;;;1.13;;
29958;SDS011;16815;51.100;6.516;2024-03-29T10:39:29;0.93;;;0.70;;
29958;SDS011;16815;51.100;6.516;2024-03-29T10:41:56;1.40;;;0.80;;
29958;SDS011;16815;51.100;6.516;2024-03-29T10:44:23;1.13;;;0.70;;
29958;SDS011;16815;51.100;6.516;2024-03-29T10:46:50;0.80;;;0.60;;
29958;SDS011;16815;51.100;6.516;2024-03-29T10:49:16;1.20;;;0.70;;
29958;SDS011;16815;51.100;6.516;2024-03-29T10:51:43;1.83;;;0.70;;
29958;SDS011;16815;51.100;6.516;2024-03-29T10:54:09;1.13;;;0.83;;
29958;SDS011;16815;51.100;6.516;2024-03-29T10:56:35;0.80;;;0.80;;
29958;SDS011;16815;51.100;6.516;2024-03-29T10:59:27;1.00;;;0.80;;
29958;SDS011;16815;51.100;6.516;2024-03-29T11:01:52;1.37;;;0.63;;
29958;SDS011;16815;51.100;6.516;2024-03-29T11:04:25;0.63;;;0.50;;
29958;SDS011;16815;51.100;6.516;2024-03-29T11:06:54;1.53;;;0.70;;
29958;SDS011;16815;51.100;6.516;2024-03-29T11:09:20;0.60;;;0.60;;
29958;SDS011;16815;51.100;6.516;2024-03-29T11:11:48;1.03;;;0.77;;
29958;SDS011;16815;51.100;6.516;2024-03-29T11:14:17;1.47;;;0.80;;
29958;SDS011;16815;51.100;6.516;2024-03-29T11:16:43;1.73;;;0.80;;
29958;SDS011;16815;51.100;6.516;2024-03-29T11:19:12;5.13;;;0.93;;
29958;SDS011;16815;51.100;6.516;2024-03-29T11:21:38;4.23;;;1.17;;
29958;SDS011;16815;51.100;6.516;2024-03-29T11:24:07;2.50;;;0.80;;
29958;SDS011;16815;51.100;6.516;2024-03-29T11:26:33;2.67;;;0.90;;
29958;SDS011;16815;51.100;6.516;2024-03-29T11:28:59;5.53;;;1.30;;
29958;SDS011;16815;51.100;6.516;2024-03-29T11:31:26;6.10;;;1.20;;
29958;SDS011;16815;51.100;6.516;2024-03-29T11:33:52;4.43;;;1.00;;
29958;SDS011;16815;51.100;6.516;2024-03-29T11:36:20;3.77;;;1.10;;
29958;SDS011;16815;51.100;6.516;2024-03-29T11:38:49;2.40;;;0.97;;
29958;SDS011;16815;51.100;6.516;2024-03-29T11:41:16;2.53;;;0.83;;
29958;SDS011;16815;51.100;6.516;2024-03-29T11:43:43;5.83;;;1.23;;
29958;SDS011;16815;51.100;6.516;2024-03-29T11:46:10;1.50;;;0.80;;
29958;SDS011;16815;51.100;6.516;2024-03-29T11:48:36;3.77;;;0.90;;
29958;SDS011;16815;51.100;6.516;2024-03-29T11:51:04;2.20;;;0.63;;
29958;SDS011;16815;51.100;6.516;2024-03-29T11:53:31;3.33;;;0.87;;
29958;SDS011;16815;51.100;6.516;2024-03-29T11:55:58;6.10;;;1.03;;
29958;SDS011;16815;51.100;6.516;2024-03-29T11:58:24;2.03;;;0.80;;
29958;SDS011;16815;51.100;6.516;2024-03-29T12:00:51;5.80;;;1.20;;
29958;SDS011;16815;51.100;6.516;2024-03-29T12:03:17;4.77;;;1.03;;
29958;SDS011;16815;51.100;6.516;2024-03-29T12:05:45;9.73;;;1.03;;
29958;SDS011;16815;51.100;6.516;2024-03-29T12:08:11;3.33;;;1.00;;
29958;SDS011;16815;51.100;6.516;2024-03-29T12:10:37;6.80;;;1.20;;
29958;SDS011;16815;51.100;6.516;2024-03-29T12:13:06;10.37;;;1.60;;
29958;SDS011;16815;51.100;6.516;2024-03-29T12:15:33;5.83;;;1.13;;
29958;SDS011;16815;51.100;6.516;2024-03-29T12:17:59;6.80;;;1.83;;
29958;SDS011;16815;51.100;6.516;2024-03-29T12:20:29;3.97;;;1.80;;
29958;SDS011;16815;51.100;6.516;2024-03-29T12:22:56;2.07;;;1.20;;
29958;SDS011;16815;51.100;6.516;2024-03-29T12:25:22;2.77;;;1.30;;
29958;SDS011;16815;51.100;6.516;2024-03-29T12:27:48;2.03;;;1.00;;
29958;SDS011;16815;51.100;6.516;2024-03-29T12:30:14;5.60;;;2.60;;
29958;SDS011;16815;51.100;6.516;2024-03-29T12:32:40;1.83;;;1.10;;
29958;SDS011;16815;51.100;6.516;2024-03-29T12:35:16;1.43;;;0.70;;
29958;SDS011;16815;51.100;6.516;2024-03-29T12:37:51;1.93;;;1.20;;
29958;SDS011;16815;51.100;6.516;2024-03-29T12:40:18;2.73;;;1.67;;
29958;SDS011;16815;51.100;6.516;2024-03-29T12:42:50;3.60;;;1.90;;
29958;SDS011;16815;51.100;6.516;2024-03-29T12:45:17;2.53;;;1.17;;
29958;SDS011;16815;51.100;6.516;2024-03-29T12:47:43;2.70;;;1.40;;
29958;SDS011;16815;51.100;6.516;2024-03-29T12:50:11;1.43;;;1.00;;
29958;SDS011;16815;51.100;6.516;2024-03-29T12:52:41;2.27;;;1.07;;
29958;SDS011;16815;51.100;6.516;2024-03-29T12:55:07;2.17;;;0.97;;
29958;SDS011;16815;51.100;6.516;2024-03-29T12:57:35;4.17;;;0.70;;
29958;SDS011;16815;51.100;6.516;2024-03-29T13:00:01;2.53;;;1.10;;
29958;SDS011;16815;51.100;6.516;2024-03-29T13:02:28;3.73;;;1.30;;
29958;SDS011;16815;51.100;6.516;2024-03-29T13:04:54;1.53;;;0.97;;
29958;SDS011;16815;51.100;6.516;2024-03-29T13:07:21;1.90;;;0.90;;
29958;SDS011;16815;51.100;6.516;2024-03-29T13:09:47;1.73;;;0.80;;
29958;SDS011;16815;51.100;6.516;2024-03-29T13:12:13;2.40;;;0.80;;
29958;SDS011;16815;51.100;6.516;2024-03-29T13:14:39;2.40;;;0.93;;
29958;SDS011;16815;51.100;6.516;2024-03-29T13:17:05;2.73;;;0.90;;
29958;SDS011;16815;51.100;6.516;2024-03-29T13:19:31;0.70;;;0.70;;
29958;SDS011;16815;51.100;6.516;2024-03-29T13:21:58;0.83;;;0.63;;
29958;SDS011;16815;51.100;6.516;2024-03-29T13:24:24;1.83;;;0.77;;
29958;SDS011;16815;51.100;6.516;2024-03-29T13:26:50;0.90;;;0.60;;
29958;SDS011;16815;51.100;6.516;2024-03-29T13:29:16;1.63;;;0.77;;
29958;SDS011;16815;51.100;6.516;2024-03-29T13:31:42;1.00;;;0.50;;
29958;SDS011;16815;51.100;6.516;2024-03-29T13:34:08;4.37;;;0.97;;
29958;SDS011;16815;51.100;6.516;2024-03-29T13:36:40;3.57;;;1.10;;
29958;SDS011;16815;51.100;6.516;2024-03-29T13:39:09;3.37;;;1.20;;
29958;SDS011;16815;51.100;6.516;2024-03-29T13:41:38;3.60;;;0.80;;
29958;SDS011;16815;51.100;6.516;2024-03-29T13:44:05;2.83;;;0.83;;
29958;SDS011;16815;51.100;6.516;2024-03-29T13:46:35;3.70;;;1.20;;
29958;SDS011;16815;51.100;6.516;2024-03-29T13:49:01;1.47;;;0.80;;
29958;SDS011;16815;51.100;6.516;2024-03-29T13:51:28;2.20;;;0.90;;
29958;SDS011;16815;51.100;6.516;2024-03-29T13:53:54;1.50;;;0.87;;
29958;SDS011;16815;51.100;6.516;2024-03-29T13:56:20;1.13;;;0.83;;
29958;SDS011;16815;51.100;6.516;2024-03-29T13:58:47;1.03;;;0.53;;
29958;SDS011;16815;51.100;6.516;2024-03-29T14:01:13;4.27;;;0.83;;
29958;SDS011;16815;51.100;6.516;2024-03-29T14:03:39;4.80;;;0.83;;
29958;SDS011;16815;51.100;6.516;2024-03-29T14:06:05;2.87;;;0.87;;
29958;SDS011;16815;51.100;6.516;2024-03-29T14:08:31;1.27;;;0.60;;
29958;SDS011;16815;51.100;6.516;2024-03-29T14:11:00;1.83;;;0.80;;
29958;SDS011;16815;51.100;6.516;2024-03-29T14:13:26;1.57;;;0.67;;
29958;SDS011;16815;51.100;6.516;2024-03-29T14:15:52;0.67;;;0.60;;
29958;SDS011;16815;51.100;6.516;2024-03-29T14:18:19;0.70;;;0.60;;
29958;SDS011;16815;51.100;6.516;2024-03-29T14:20:45;2.13;;;0.87;;
29958;SDS011;16815;51.100;6.516;2024-03-29T14:23:11;0.57;;;0.50;;
29958;SDS011;16815;51.100;6.516;2024-03-29T14:25:40;0.60;;;0.60;;
29958;SDS011;16815;51.100;6.516;2024-03-29T14:28:06;0.83;;;0.60;;
29958;SDS011;16815;51.100;6.516;2024-03-29T14:30:32;2.30;;;0.50;;
29958;SDS011;16815;51.100;6.516;2024-03-29T14:32:58;2.67;;;0.70;;
29958;SDS011;16815;51.100;6.516;2024-03-29T14:35:31;1.27;;;0.67;;
29958;SDS011;16815;51.100;6.516;2024-03-29T14:37:57;1.37;;;0.50;;
29958;SDS011;16815;51.100;6.516;2024-03-29T14:40:24;0.93;;;0.70;;
29958;SDS011;16815;51.100;6.516;2024-03-29T14:42:51;0.97;;;0.50;;
29958;SDS011;16815;51.100;6.516;2024-03-29T14:45:19;2.07;;;0.60;;